Aeroporto :
LOGIN :

Iscrizione | Disclaimer

   EN    FR    IT 

 










Sommario :    VFR   VFR Marginale   IFR   IFR Intensivo   IFR Molto Intensivo
Visibilità : 
Base nubi : 
>= 8 km
>= 3000ft
5 / 8 km
1000 / 3000 ft
1500m / 5 km
500 / 1000 ft
800 / 1500m
200 / 500 ft
< 800m
< 200 ft
Simboli :   Temporali  Nebbia  Neve Forte  Precipitazioni Forti  Vento > 20 kt
SIGMETs :   Varie  Temporali  Ghiacco  Turbolenza  Onda orograficha  Ceneri Vulcaniche






- Altitudine del aeroporto : 1 ft


EGCK - Caernarfon

ULTIMO METAR :
  • 301550Z AUTO 28007KT 220V330 9999 NCD 20/09 Q1021

METARs OBSOLETI :
  • 301520Z AUTO 26006KT 180V350 9999 NCD 20/11 Q1021
  • 301450Z AUTO 25007KT 220V280 9999 NCD 21/11 Q1021
  • 301420Z AUTO 24008KT 9999 NCD 20/12 Q1022
  • 301350Z AUTO 22009KT 9999 NCD 20/10 Q1022
  • 301320Z AUTO 22010KT 9999 NCD 21/10 Q1022

TAF TAF EGCK
Valido dal 30 a 15 ore il 31 a 00 ore UTC


301357Z 3015/3024 26009KT CAVOK



MetMap, La meteo Aeronautica in un colpo d'occhio ! - Copyright ORBIFLY Dicembre 2007 - Disclaimer

ORBIFLY MET'MAP TEAM :

Programmazione e sviluppo : Alexandra Zaïnal
Concezione : Baudouin d'Aumeries
Aiuto per la programmazione : Marc-Olivier Méhu
Supporto tecnico e logistico : Manuel Goepfert
Aiuto per la traduzione : Arnaldo La Scala

Contatto : metmap@orbifly.com




FONTI E CREDITI :

   NOAA